Hartsfield Jackson Atlanta International Airport

METAR KATL TAF KATL
2 °C
°C
-
°C
40m
Age
15:32:22
LT
14:32
UTC
0 ft

6,000

12,000

18,000

24,000

30,000

FEW 25,000
VFR
<?= Yii::t('app', 'Wind direction') ?> <?= Yii::t('app', 'of'); ?>
100°
18:11
Sunset
52%
Humidity
Wind shear
Closed/Snow
RWY visual range
RWY condition
Vert. visibility
Min. visibility
CAVOK
Trend
Correction
Special report
30.54 inHg
QNH
METAR KATL 041352Z 10009KT 10SM FEW250 02/M07 A3054 RMK AO2 SLP349 T00171072 $
Few clouds
1 kt
1 kt
09:00
VFR
9 kt
10:00
VFR
9 kt
11:00
VFR
9 kt
12:00
VFR
9 kt
13:00
VFR
7 kt
14:00
VFR
7 kt
15:00
VFR
7 kt
10 mi
Visibility
None
Ceiling
9 kt
Wind
metar-taf.com/KATL

Metar-Taf.com

Visual decoder

We and third parties follow your internet behavior on our website with cookies. If you continue, we assume you agree with our cookie policy.